sensor_id;sensor_type;location;lat;lon;timestamp;pressure;altitude;pressure_sealevel;temperature;humidity
56241;BME280;42155;53.096;23.226;2023-12-28T00:00:18;100302.03;;;0.04;78.71
56241;BME280;42155;53.096;23.226;2023-12-28T00:02:20;100323.47;;;0.14;78.54
56241;BME280;42155;53.096;23.226;2023-12-28T00:04:24;100293.75;;;-0.09;79.01
56241;BME280;42155;53.096;23.226;2023-12-28T00:06:24;100365.47;;;0.34;78.86
56241;BME280;42155;53.096;23.226;2023-12-28T00:08:26;100374.59;;;0.47;78.43
56241;BME280;42155;53.096;23.226;2023-12-28T00:10:30;100366.91;;;0.43;78.47
56241;BME280;42155;53.096;23.226;2023-12-28T00:12:30;100339.03;;;0.17;78.58
56241;BME280;42155;53.096;23.226;2023-12-28T00:14:34;100389.38;;;0.48;78.82
56241;BME280;42155;53.096;23.226;2023-12-28T00:16:34;100366.41;;;0.32;78.40
56241;BME280;42155;53.096;23.226;2023-12-28T00:18:35;100394.66;;;0.45;79.03
56241;BME280;42155;53.096;23.226;2023-12-28T00:20:38;100396.28;;;0.49;79.10
56241;BME280;42155;53.096;23.226;2023-12-28T00:22:38;100372.03;;;0.46;79.17
56241;BME280;42155;53.096;23.226;2023-12-28T00:24:41;100399.66;;;0.53;78.78
56241;BME280;42155;53.096;23.226;2023-12-28T00:26:42;100347.09;;;0.37;78.95
56241;BME280;42155;53.096;23.226;2023-12-28T00:28:42;100328.09;;;0.32;78.70
56241;BME280;42155;53.096;23.226;2023-12-28T00:30:42;100375.69;;;0.67;78.82
56241;BME280;42155;53.096;23.226;2023-12-28T00:32:43;100327.31;;;0.57;78.66
56241;BME280;42155;53.096;23.226;2023-12-28T00:34:44;100301.97;;;0.59;78.57
56241;BME280;42155;53.096;23.226;2023-12-28T00:36:44;100276.38;;;0.43;78.91
56241;BME280;42155;53.096;23.226;2023-12-28T00:38:45;100286.31;;;0.59;79.13
56241;BME280;42155;53.096;23.226;2023-12-28T00:40:45;100231.78;;;0.24;78.79
56241;BME280;42155;53.096;23.226;2023-12-28T00:42:46;100265.88;;;0.45;79.29
56241;BME280;42155;53.096;23.226;2023-12-28T00:44:46;100300.44;;;0.78;79.41
56241;BME280;42155;53.096;23.226;2023-12-28T00:46:47;100276.78;;;0.58;78.61
56241;BME280;42155;53.096;23.226;2023-12-28T00:48:47;100307.16;;;0.85;78.82
56241;BME280;42155;53.096;23.226;2023-12-28T00:50:48;100299.31;;;0.85;79.29
56241;BME280;42155;53.096;23.226;2023-12-28T00:52:50;100256.09;;;0.52;78.85
56241;BME280;42155;53.096;23.226;2023-12-28T00:54:51;100296.88;;;0.81;79.08
56241;BME280;42155;53.096;23.226;2023-12-28T00:56:51;100258.59;;;0.55;79.09
56241;BME280;42155;53.096;23.226;2023-12-28T00:58:52;100308.84;;;0.86;79.21
56241;BME280;42155;53.096;23.226;2023-12-28T01:00:52;100251.75;;;0.50;79.28
56241;BME280;42155;53.096;23.226;2023-12-28T01:02:52;100275.69;;;0.63;79.02
56241;BME280;42155;53.096;23.226;2023-12-28T01:04:53;100321.13;;;0.84;79.63
56241;BME280;42155;53.096;23.226;2023-12-28T01:06:56;100312.28;;;0.88;78.91
56241;BME280;42155;53.096;23.226;2023-12-28T01:08:56;100303.56;;;0.88;79.08
56241;BME280;42155;53.096;23.226;2023-12-28T01:10:57;100297.03;;;0.76;79.01
56241;BME280;42155;53.096;23.226;2023-12-28T01:13:00;100281.69;;;0.67;79.18
56241;BME280;42155;53.096;23.226;2023-12-28T01:15:00;100301.94;;;0.85;78.95
56241;BME280;42155;53.096;23.226;2023-12-28T01:17:01;100295.34;;;0.75;79.33
56241;BME280;42155;53.096;23.226;2023-12-28T01:19:10;100241.16;;;0.55;79.13
56241;BME280;42155;53.096;23.226;2023-12-28T01:21:11;100266.75;;;0.70;79.11
56241;BME280;42155;53.096;23.226;2023-12-28T01:23:12;100242.88;;;0.56;78.77
56241;BME280;42155;53.096;23.226;2023-12-28T01:25:13;100279.34;;;0.84;79.56
56241;BME280;42155;53.096;23.226;2023-12-28T01:27:13;100263.47;;;0.65;79.35
56241;BME280;42155;53.096;23.226;2023-12-28T01:29:15;100278.81;;;0.74;78.78
56241;BME280;42155;53.096;23.226;2023-12-28T01:31:17;100311.09;;;0.97;79.07
56241;BME280;42155;53.096;23.226;2023-12-28T01:33:18;100285.41;;;0.85;79.63
56241;BME280;42155;53.096;23.226;2023-12-28T01:35:19;100296.47;;;0.91;79.34
56241;BME280;42155;53.096;23.226;2023-12-28T01:37:19;100271.69;;;0.78;79.46
56241;BME280;42155;53.096;23.226;2023-12-28T01:39:20;100303.06;;;1.01;79.71
56241;BME280;42155;53.096;23.226;2023-12-28T01:41:20;100297.00;;;1.01;79.29
56241;BME280;42155;53.096;23.226;2023-12-28T01:43:24;100154.75;;;0.13;79.10
56241;BME280;42155;53.096;23.226;2023-12-28T01:45:25;100267.44;;;0.75;79.38
56241;BME280;42155;53.096;23.226;2023-12-28T01:47:29;100243.09;;;0.75;79.17
56241;BME280;42155;53.096;23.226;2023-12-28T01:49:30;100306.19;;;1.13;79.67
56241;BME280;42155;53.096;23.226;2023-12-28T01:51:34;100299.19;;;1.13;79.60
56241;BME280;42155;53.096;23.226;2023-12-28T01:53:36;100280.38;;;1.04;79.19
56241;BME280;42155;53.096;23.226;2023-12-28T01:55:40;100288.91;;;1.09;79.86
56241;BME280;42155;53.096;23.226;2023-12-28T01:57:40;100203.66;;;0.58;79.43
56241;BME280;42155;53.096;23.226;2023-12-28T01:59:41;100224.13;;;0.70;79.76
56241;BME280;42155;53.096;23.226;2023-12-28T02:01:44;100297.31;;;1.17;79.25
56241;BME280;42155;53.096;23.226;2023-12-28T02:03:45;100275.22;;;1.02;79.77
56241;BME280;42155;53.096;23.226;2023-12-28T02:05:53;100283.47;;;0.90;79.58
56241;BME280;42155;53.096;23.226;2023-12-28T02:07:54;100259.19;;;1.11;79.65
56241;BME280;42155;53.096;23.226;2023-12-28T02:09:54;100183.91;;;0.74;79.92
56241;BME280;42155;53.096;23.226;2023-12-28T02:11:55;100179.38;;;0.56;79.65
56241;BME280;42155;53.096;23.226;2023-12-28T02:13:55;100248.22;;;1.25;79.55
56241;BME280;42155;53.096;23.226;2023-12-28T02:16:10;100244.03;;;1.21;79.92
56241;BME280;42155;53.096;23.226;2023-12-28T02:18:19;100234.34;;;1.23;79.79
56241;BME280;42155;53.096;23.226;2023-12-28T02:20:22;100194.91;;;1.06;79.86
56241;BME280;42155;53.096;23.226;2023-12-28T02:22:26;100222.09;;;1.25;79.76
56241;BME280;42155;53.096;23.226;2023-12-28T02:24:27;100157.56;;;0.80;79.63
56241;BME280;42155;53.096;23.226;2023-12-28T02:26:28;100131.25;;;0.85;80.09
56241;BME280;42155;53.096;23.226;2023-12-28T02:28:31;100151.16;;;0.89;79.55
56241;BME280;42155;53.096;23.226;2023-12-28T02:30:31;100187.66;;;1.14;79.72
56241;BME280;42155;53.096;23.226;2023-12-28T02:34:51;100187.72;;;1.12;79.60
56241;BME280;42155;53.096;23.226;2023-12-28T02:36:56;100164.56;;;1.01;80.16
56241;BME280;42155;53.096;23.226;2023-12-28T02:39:00;100213.09;;;1.32;79.83
56241;BME280;42155;53.096;23.226;2023-12-28T02:41:03;100231.84;;;1.43;79.55
56241;BME280;42155;53.096;23.226;2023-12-28T02:43:08;100233.94;;;1.34;79.90
56241;BME280;42155;53.096;23.226;2023-12-28T02:45:10;99995.13;;;0.02;79.61
56241;BME280;42155;53.096;23.226;2023-12-28T02:47:11;100236.09;;;1.46;80.14
56241;BME280;42155;53.096;23.226;2023-12-28T02:49:11;100226.72;;;1.40;79.56
56241;BME280;42155;53.096;23.226;2023-12-28T02:51:12;100193.25;;;1.26;79.85
56241;BME280;42155;53.096;23.226;2023-12-28T02:53:13;100231.69;;;1.46;80.11
56241;BME280;42155;53.096;23.226;2023-12-28T02:55:16;100186.16;;;1.30;79.58
56241;BME280;42155;53.096;23.226;2023-12-28T02:57:16;100212.63;;;1.44;80.04
56241;BME280;42155;53.096;23.226;2023-12-28T02:59:17;100213.41;;;1.46;79.46
56241;BME280;42155;53.096;23.226;2023-12-28T03:01:17;100219.53;;;1.45;79.63
56241;BME280;42155;53.096;23.226;2023-12-28T03:03:17;100146.28;;;1.01;80.24
56241;BME280;42155;53.096;23.226;2023-12-28T03:05:18;100189.47;;;1.34;80.30
56241;BME280;42155;53.096;23.226;2023-12-28T03:07:18;100192.09;;;1.34;79.87
56241;BME280;42155;53.096;23.226;2023-12-28T03:09:19;100200.75;;;1.36;79.84
56241;BME280;42155;53.096;23.226;2023-12-28T03:11:19;100211.69;;;1.45;80.39
56241;BME280;42155;53.096;23.226;2023-12-28T03:13:20;100139.59;;;0.94;80.07
56241;BME280;42155;53.096;23.226;2023-12-28T03:15:20;100198.88;;;1.39;80.23
56241;BME280;42155;53.096;23.226;2023-12-28T03:17:21;100185.81;;;1.39;80.26
56241;BME280;42155;53.096;23.226;2023-12-28T03:19:22;100191.91;;;1.38;80.03
56241;BME280;42155;53.096;23.226;2023-12-28T03:21:24;100204.59;;;1.49;79.80
56241;BME280;42155;53.096;23.226;2023-12-28T03:23:27;100170.88;;;1.41;80.05
56241;BME280;42155;53.096;23.226;2023-12-28T03:25:29;100162.50;;;1.33;80.06
56241;BME280;42155;53.096;23.226;2023-12-28T03:27:29;100182.00;;;1.46;80.11
56241;BME280;42155;53.096;23.226;2023-12-28T03:29:30;100116.28;;;1.12;79.98
56241;BME280;42155;53.096;23.226;2023-12-28T03:31:33;100166.41;;;1.45;79.98
56241;BME280;42155;53.096;23.226;2023-12-28T03:33:35;100108.28;;;1.16;80.46
56241;BME280;42155;53.096;23.226;2023-12-28T03:35:36;100182.88;;;1.47;80.09
56241;BME280;42155;53.096;23.226;2023-12-28T03:37:37;100171.44;;;1.49;80.04
56241;BME280;42155;53.096;23.226;2023-12-28T03:39:37;100150.81;;;1.42;80.38
56241;BME280;42155;53.096;23.226;2023-12-28T03:41:37;100116.78;;;1.21;79.95
56241;BME280;42155;53.096;23.226;2023-12-28T03:43:39;100187.91;;;1.51;79.94
56241;BME280;42155;53.096;23.226;2023-12-28T03:45:43;100081.09;;;0.98;79.97
56241;BME280;42155;53.096;23.226;2023-12-28T03:47:43;100012.25;;;0.56;80.17
56241;BME280;42155;53.096;23.226;2023-12-28T03:49:54;100187.00;;;1.52;79.79
56241;BME280;42155;53.096;23.226;2023-12-28T03:51:55;100166.94;;;1.53;79.96
56241;BME280;42155;53.096;23.226;2023-12-28T03:53:55;100169.59;;;1.51;80.11
56241;BME280;42155;53.096;23.226;2023-12-28T03:55:56;100160.69;;;1.35;79.59
56241;BME280;42155;53.096;23.226;2023-12-28T03:57:56;100174.06;;;1.49;79.38
56241;BME280;42155;53.096;23.226;2023-12-28T03:59:57;100153.75;;;1.34;79.47
56241;BME280;42155;53.096;23.226;2023-12-28T04:01:57;100186.16;;;1.52;79.82
56241;BME280;42155;53.096;23.226;2023-12-28T04:03:58;100117.63;;;1.22;79.79
56241;BME280;42155;53.096;23.226;2023-12-28T04:06:01;100048.63;;;0.82;79.57
56241;BME280;42155;53.096;23.226;2023-12-28T04:08:01;100147.53;;;1.37;79.67
56241;BME280;42155;53.096;23.226;2023-12-28T04:10:05;100170.63;;;1.47;79.95
56241;BME280;42155;53.096;23.226;2023-12-28T04:12:06;100165.28;;;1.50;80.05
56241;BME280;42155;53.096;23.226;2023-12-28T04:14:06;100141.19;;;1.42;80.00
56241;BME280;42155;53.096;23.226;2023-12-28T04:16:07;100168.66;;;1.54;80.23
56241;BME280;42155;53.096;23.226;2023-12-28T04:18:08;100171.31;;;1.52;80.05
56241;BME280;42155;53.096;23.226;2023-12-28T04:20:11;100156.66;;;1.48;80.02
56241;BME280;42155;53.096;23.226;2023-12-28T04:22:14;100119.56;;;1.17;79.95
56241;BME280;42155;53.096;23.226;2023-12-28T04:24:27;100078.84;;;1.11;79.62
56241;BME280;42155;53.096;23.226;2023-12-28T04:26:33;100066.09;;;1.04;79.85
56241;BME280;42155;53.096;23.226;2023-12-28T04:28:37;100149.50;;;1.53;80.34
56241;BME280;42155;53.096;23.226;2023-12-28T04:30:38;100047.66;;;0.85;79.82
56241;BME280;42155;53.096;23.226;2023-12-28T04:32:38;100092.44;;;1.19;80.06
56241;BME280;42155;53.096;23.226;2023-12-28T04:34:40;100117.44;;;1.48;79.95
56241;BME280;42155;53.096;23.226;2023-12-28T04:36:41;100113.25;;;1.44;79.90
56241;BME280;42155;53.096;23.226;2023-12-28T04:38:42;100109.72;;;1.45;80.14
56241;BME280;42155;53.096;23.226;2023-12-28T04:40:42;100087.59;;;1.32;79.85
56241;BME280;42155;53.096;23.226;2023-12-28T04:42:43;100106.25;;;1.45;80.35
56241;BME280;42155;53.096;23.226;2023-12-28T04:44:43;100107.63;;;1.53;80.26
56241;BME280;42155;53.096;23.226;2023-12-28T04:46:44;100089.94;;;1.38;80.09
56241;BME280;42155;53.096;23.226;2023-12-28T04:48:44;100086.44;;;1.39;79.73
56241;BME280;42155;53.096;23.226;2023-12-28T04:50:45;100114.63;;;1.53;80.27
56241;BME280;42155;53.096;23.226;2023-12-28T04:52:45;100094.03;;;1.45;80.02
56241;BME280;42155;53.096;23.226;2023-12-28T04:54:45;100074.44;;;1.34;80.02
56241;BME280;42155;53.096;23.226;2023-12-28T04:56:46;100090.47;;;1.46;79.95
56241;BME280;42155;53.096;23.226;2023-12-28T04:58:46;100088.91;;;1.42;80.57
56241;BME280;42155;53.096;23.226;2023-12-28T05:00:47;100082.25;;;1.35;80.52
56241;BME280;42155;53.096;23.226;2023-12-28T05:02:47;100069.94;;;1.37;80.37
56241;BME280;42155;53.096;23.226;2023-12-28T05:04:48;100059.63;;;1.34;80.53
56241;BME280;42155;53.096;23.226;2023-12-28T05:06:48;100061.31;;;1.35;79.85
56241;BME280;42155;53.096;23.226;2023-12-28T05:08:49;100045.34;;;1.21;80.17
56241;BME280;42155;53.096;23.226;2023-12-28T05:10:50;100040.63;;;1.09;80.40
56241;BME280;42155;53.096;23.226;2023-12-28T05:12:50;100053.97;;;1.01;80.73
56241;BME280;42155;53.096;23.226;2023-12-28T05:14:51;100077.59;;;1.20;80.56
56241;BME280;42155;53.096;23.226;2023-12-28T05:16:51;100078.59;;;1.17;80.79
56241;BME280;42155;53.096;23.226;2023-12-28T05:18:52;100037.69;;;0.94;80.90
56241;BME280;42155;53.096;23.226;2023-12-28T05:20:53;100046.31;;;0.96;81.08
56241;BME280;42155;53.096;23.226;2023-12-28T05:23:01;100067.59;;;1.09;80.69
56241;BME280;42155;53.096;23.226;2023-12-28T05:25:01;100061.44;;;1.10;80.84
56241;BME280;42155;53.096;23.226;2023-12-28T05:27:02;100054.53;;;1.09;80.41
56241;BME280;42155;53.096;23.226;2023-12-28T05:29:03;100040.06;;;1.00;80.83
56241;BME280;42155;53.096;23.226;2023-12-28T05:31:03;100033.88;;;1.03;80.79
56241;BME280;42155;53.096;23.226;2023-12-28T05:33:05;99994.69;;;0.81;80.64
56241;BME280;42155;53.096;23.226;2023-12-28T05:35:06;100015.75;;;0.98;80.48
56241;BME280;42155;53.096;23.226;2023-12-28T05:37:06;100016.88;;;0.93;80.59
56241;BME280;42155;53.096;23.226;2023-12-28T05:39:07;100002.16;;;0.90;81.12
56241;BME280;42155;53.096;23.226;2023-12-28T05:41:09;100004.00;;;0.88;80.72
56241;BME280;42155;53.096;23.226;2023-12-28T05:43:11;99968.84;;;0.73;80.89
56241;BME280;42155;53.096;23.226;2023-12-28T05:45:11;99973.38;;;0.70;80.90
56241;BME280;42155;53.096;23.226;2023-12-28T05:47:12;99983.38;;;0.81;81.08
56241;BME280;42155;53.096;23.226;2023-12-28T05:49:12;99976.75;;;0.72;80.87
56241;BME280;42155;53.096;23.226;2023-12-28T05:51:13;99994.63;;;0.83;81.39
56241;BME280;42155;53.096;23.226;2023-12-28T05:53:14;99992.06;;;0.81;81.08
56241;BME280;42155;53.096;23.226;2023-12-28T05:55:14;99991.22;;;0.81;80.89
56241;BME280;42155;53.096;23.226;2023-12-28T05:57:15;99980.69;;;0.82;80.78
56241;BME280;42155;53.096;23.226;2023-12-28T05:59:17;99963.88;;;0.67;81.37
56241;BME280;42155;53.096;23.226;2023-12-28T06:01:18;99984.31;;;0.80;81.47
56241;BME280;42155;53.096;23.226;2023-12-28T06:03:24;99979.13;;;0.78;80.91
56241;BME280;42155;53.096;23.226;2023-12-28T06:05:25;99953.88;;;0.57;81.42
56241;BME280;42155;53.096;23.226;2023-12-28T06:07:25;99950.91;;;0.66;81.17
56241;BME280;42155;53.096;23.226;2023-12-28T06:09:26;99970.31;;;0.81;81.19
56241;BME280;42155;53.096;23.226;2023-12-28T06:11:28;99952.41;;;0.71;80.78
56241;BME280;42155;53.096;23.226;2023-12-28T06:13:30;99985.75;;;0.87;81.30
56241;BME280;42155;53.096;23.226;2023-12-28T06:15:31;99879.81;;;0.37;81.56
56241;BME280;42155;53.096;23.226;2023-12-28T06:17:31;99941.72;;;0.77;81.04
56241;BME280;42155;53.096;23.226;2023-12-28T06:19:31;99887.47;;;0.42;81.04
56241;BME280;42155;53.096;23.226;2023-12-28T06:21:34;99920.50;;;0.85;81.10
56241;BME280;42155;53.096;23.226;2023-12-28T06:23:34;99928.09;;;0.91;80.98
56241;BME280;42155;53.096;23.226;2023-12-28T06:25:35;99925.47;;;0.91;81.61
56241;BME280;42155;53.096;23.226;2023-12-28T06:27:38;99901.69;;;0.77;80.89
56241;BME280;42155;53.096;23.226;2023-12-28T06:29:38;99908.28;;;0.86;80.74
56241;BME280;42155;53.096;23.226;2023-12-28T06:31:39;99899.72;;;0.82;81.29
56241;BME280;42155;53.096;23.226;2023-12-28T06:33:39;99913.69;;;0.81;80.93
56241;BME280;42155;53.096;23.226;2023-12-28T06:35:42;99921.34;;;0.86;81.47
56241;BME280;42155;53.096;23.226;2023-12-28T06:37:43;99934.50;;;0.84;81.01
56241;BME280;42155;53.096;23.226;2023-12-28T06:39:43;99926.94;;;0.76;81.30
56241;BME280;42155;53.096;23.226;2023-12-28T06:41:47;99906.16;;;0.73;81.61
56241;BME280;42155;53.096;23.226;2023-12-28T06:43:48;99929.00;;;0.90;81.57
56241;BME280;42155;53.096;23.226;2023-12-28T06:45:48;99923.00;;;0.88;81.51
56241;BME280;42155;53.096;23.226;2023-12-28T06:47:49;99903.25;;;0.81;80.88
56241;BME280;42155;53.096;23.226;2023-12-28T06:49:52;99885.28;;;0.73;80.91
56241;BME280;42155;53.096;23.226;2023-12-28T06:51:53;99910.25;;;1.01;81.52
56241;BME280;42155;53.096;23.226;2023-12-28T06:53:57;99896.53;;;0.96;80.94
56241;BME280;42155;53.096;23.226;2023-12-28T06:56:01;99900.53;;;1.05;80.68
56241;BME280;42155;53.096;23.226;2023-12-28T06:58:01;99890.19;;;1.01;80.64
56241;BME280;42155;53.096;23.226;2023-12-28T07:00:01;99902.81;;;1.12;81.10
56241;BME280;42155;53.096;23.226;2023-12-28T07:02:02;99892.91;;;1.20;80.98
56241;BME280;42155;53.096;23.226;2023-12-28T07:04:03;99897.13;;;1.23;80.75
56241;BME280;42155;53.096;23.226;2023-12-28T07:06:03;99886.59;;;1.24;80.40
56241;BME280;42155;53.096;23.226;2023-12-28T07:08:04;99855.72;;;1.14;81.12
56241;BME280;42155;53.096;23.226;2023-12-28T07:10:06;99865.75;;;1.23;80.41
56241;BME280;42155;53.096;23.226;2023-12-28T07:12:07;99856.34;;;1.19;80.46
56241;BME280;42155;53.096;23.226;2023-12-28T07:14:07;99865.31;;;1.13;80.42
56241;BME280;42155;53.096;23.226;2023-12-28T07:16:08;99858.03;;;1.20;80.52
56241;BME280;42155;53.096;23.226;2023-12-28T07:18:08;99869.28;;;1.22;80.86
56241;BME280;42155;53.096;23.226;2023-12-28T07:20:09;99849.22;;;1.22;80.61
56241;BME280;42155;53.096;23.226;2023-12-28T07:22:09;99852.69;;;1.23;80.48
56241;BME280;42155;53.096;23.226;2023-12-28T07:24:10;99830.81;;;1.25;80.79
56241;BME280;42155;53.096;23.226;2023-12-28T07:26:10;99810.03;;;1.22;80.68
56241;BME280;42155;53.096;23.226;2023-12-28T07:28:11;99802.09;;;1.24;80.11
56241;BME280;42155;53.096;23.226;2023-12-28T07:30:11;99812.31;;;1.30;80.69
56241;BME280;42155;53.096;23.226;2023-12-28T07:32:12;99811.25;;;1.34;80.91
56241;BME280;42155;53.096;23.226;2023-12-28T07:34:13;99823.31;;;1.37;80.60
56241;BME280;42155;53.096;23.226;2023-12-28T07:36:13;99815.41;;;1.38;80.85
56241;BME280;42155;53.096;23.226;2023-12-28T07:38:14;99787.97;;;1.28;80.06
56241;BME280;42155;53.096;23.226;2023-12-28T07:40:17;99778.88;;;1.37;80.42
56241;BME280;42155;53.096;23.226;2023-12-28T07:42:18;99795.78;;;1.48;79.78
56241;BME280;42155;53.096;23.226;2023-12-28T07:44:18;99786.09;;;1.50;80.46
56241;BME280;42155;53.096;23.226;2023-12-28T07:46:18;99735.16;;;1.21;80.27
56241;BME280;42155;53.096;23.226;2023-12-28T07:48:19;99778.47;;;1.46;79.77
56241;BME280;42155;53.096;23.226;2023-12-28T07:50:20;99767.03;;;1.48;80.24
56241;BME280;42155;53.096;23.226;2023-12-28T07:52:23;99753.94;;;1.48;80.11
56241;BME280;42155;53.096;23.226;2023-12-28T07:54:23;99790.91;;;1.60;79.63
56241;BME280;42155;53.096;23.226;2023-12-28T07:56:24;99784.91;;;1.58;79.97
56241;BME280;42155;53.096;23.226;2023-12-28T07:58:25;99766.22;;;1.46;80.13
56241;BME280;42155;53.096;23.226;2023-12-28T08:00:25;99784.75;;;1.61;79.83
56241;BME280;42155;53.096;23.226;2023-12-28T08:02:29;99762.00;;;1.63;79.73
56241;BME280;42155;53.096;23.226;2023-12-28T08:04:29;99770.75;;;1.81;79.55
56241;BME280;42155;53.096;23.226;2023-12-28T08:06:30;99749.53;;;1.68;78.88
56241;BME280;42155;53.096;23.226;2023-12-28T08:08:31;99782.69;;;1.86;79.33
56241;BME280;42155;53.096;23.226;2023-12-28T08:10:32;99748.53;;;1.70;79.32
56241;BME280;42155;53.096;23.226;2023-12-28T08:12:33;99789.91;;;1.98;79.19
56241;BME280;42155;53.096;23.226;2023-12-28T08:14:33;99774.22;;;1.98;79.32
56241;BME280;42155;53.096;23.226;2023-12-28T08:16:37;99783.25;;;2.10;79.07
56241;BME280;42155;53.096;23.226;2023-12-28T08:18:44;99774.34;;;2.14;78.59
56241;BME280;42155;53.096;23.226;2023-12-28T08:20:45;99777.66;;;2.18;79.14
56241;BME280;42155;53.096;23.226;2023-12-28T08:22:45;99673.06;;;1.63;79.09
56241;BME280;42155;53.096;23.226;2023-12-28T08:24:46;99740.22;;;2.16;78.70
56241;BME280;42155;53.096;23.226;2023-12-28T08:26:46;99731.91;;;2.08;78.53
56241;BME280;42155;53.096;23.226;2023-12-28T08:28:51;99715.81;;;2.15;78.36
56241;BME280;42155;53.096;23.226;2023-12-28T08:30:53;99737.53;;;2.35;78.30
56241;BME280;42155;53.096;23.226;2023-12-28T08:32:54;99726.22;;;2.34;78.58
56241;BME280;42155;53.096;23.226;2023-12-28T08:34:54;99703.72;;;2.30;78.65
56241;BME280;42155;53.096;23.226;2023-12-28T08:36:55;99709.28;;;2.41;78.00
56241;BME280;42155;53.096;23.226;2023-12-28T08:38:55;99711.66;;;2.46;77.78
56241;BME280;42155;53.096;23.226;2023-12-28T08:40:57;99717.56;;;2.49;77.66
56241;BME280;42155;53.096;23.226;2023-12-28T08:43:01;99646.44;;;2.07;77.64
56241;BME280;42155;53.096;23.226;2023-12-28T08:45:02;99687.09;;;2.31;77.96
56241;BME280;42155;53.096;23.226;2023-12-28T08:47:02;99688.16;;;2.44;77.23
56241;BME280;42155;53.096;23.226;2023-12-28T08:49:03;99711.72;;;2.62;77.75
56241;BME280;42155;53.096;23.226;2023-12-28T08:51:04;99425.41;;;0.95;77.05
56241;BME280;42155;53.096;23.226;2023-12-28T08:53:04;99700.78;;;2.53;77.39
56241;BME280;42155;53.096;23.226;2023-12-28T08:55:05;99709.19;;;2.60;77.28
56241;BME280;42155;53.096;23.226;2023-12-28T08:57:06;99691.94;;;2.56;77.91
56241;BME280;42155;53.096;23.226;2023-12-28T08:59:07;99708.16;;;2.63;77.19
56241;BME280;42155;53.096;23.226;2023-12-28T09:01:17;99718.50;;;2.66;77.50
56241;BME280;42155;53.096;23.226;2023-12-28T09:03:17;99650.59;;;2.28;77.08
56241;BME280;42155;53.096;23.226;2023-12-28T09:05:18;99567.06;;;1.90;76.85
56241;BME280;42155;53.096;23.226;2023-12-28T09:07:18;99673.44;;;2.59;77.09
56241;BME280;42155;53.096;23.226;2023-12-28T09:09:19;99650.03;;;2.56;76.53
56241;BME280;42155;53.096;23.226;2023-12-28T09:11:20;99671.59;;;2.77;76.98
56241;BME280;42155;53.096;23.226;2023-12-28T09:13:20;99651.66;;;2.74;76.94
56241;BME280;42155;53.096;23.226;2023-12-28T09:15:21;99667.00;;;2.82;76.15
56241;BME280;42155;53.096;23.226;2023-12-28T09:17:21;99600.97;;;2.42;76.25
56241;BME280;42155;53.096;23.226;2023-12-28T09:19:22;99585.34;;;2.41;76.13
56241;BME280;42155;53.096;23.226;2023-12-28T09:21:22;99645.00;;;2.85;76.41
56241;BME280;42155;53.096;23.226;2023-12-28T09:23:23;99635.19;;;2.88;75.83
56241;BME280;42155;53.096;23.226;2023-12-28T09:25:25;99601.22;;;2.87;75.94
56241;BME280;42155;53.096;23.226;2023-12-28T09:27:25;99588.44;;;2.80;76.26
56241;BME280;42155;53.096;23.226;2023-12-28T09:29:26;99595.81;;;2.90;76.40
56241;BME280;42155;53.096;23.226;2023-12-28T09:31:26;99614.94;;;2.92;75.82
56241;BME280;42155;53.096;23.226;2023-12-28T09:33:27;99615.31;;;2.84;76.04
56241;BME280;42155;53.096;23.226;2023-12-28T09:35:31;99590.75;;;2.87;75.89
56241;BME280;42155;53.096;23.226;2023-12-28T09:37:32;99607.91;;;2.92;75.48
56241;BME280;42155;53.096;23.226;2023-12-28T09:39:33;99601.47;;;2.82;75.83
56241;BME280;42155;53.096;23.226;2023-12-28T09:41:39;99616.34;;;2.97;75.34
56241;BME280;42155;53.096;23.226;2023-12-28T09:44:11;99606.47;;;3.02;75.85
56241;BME280;42155;53.096;23.226;2023-12-28T09:46:12;99555.16;;;2.83;75.18
56241;BME280;42155;53.096;23.226;2023-12-28T09:48:19;99589.53;;;3.08;75.71
56241;BME280;42155;53.096;23.226;2023-12-28T09:50:20;99576.09;;;3.14;75.05
56241;BME280;42155;53.096;23.226;2023-12-28T09:52:21;99571.09;;;3.10;75.03
56241;BME280;42155;53.096;23.226;2023-12-28T09:54:22;99558.75;;;3.12;75.37
56241;BME280;42155;53.096;23.226;2023-12-28T09:56:23;99578.13;;;3.25;74.68
56241;BME280;42155;53.096;23.226;2023-12-28T09:58:23;99544.28;;;3.04;74.66
56241;BME280;42155;53.096;23.226;2023-12-28T10:00:24;99575.06;;;3.17;75.04
56241;BME280;42155;53.096;23.226;2023-12-28T10:02:24;99584.63;;;3.34;75.11
56241;BME280;42155;53.096;23.226;2023-12-28T10:04:25;99571.00;;;3.27;75.14
56241;BME280;42155;53.096;23.226;2023-12-28T10:06:25;99577.19;;;3.26;74.51
56241;BME280;42155;53.096;23.226;2023-12-28T10:08:26;99556.72;;;3.17;75.16
56241;BME280;42155;53.096;23.226;2023-12-28T10:10:29;99577.25;;;3.40;74.62
56241;BME280;42155;53.096;23.226;2023-12-28T10:12:32;99570.41;;;3.38;74.95
56241;BME280;42155;53.096;23.226;2023-12-28T10:14:36;99548.91;;;3.31;74.43
56241;BME280;42155;53.096;23.226;2023-12-28T10:16:40;99560.91;;;3.35;74.91
56241;BME280;42155;53.096;23.226;2023-12-28T10:18:43;99560.91;;;3.35;75.09
56241;BME280;42155;53.096;23.226;2023-12-28T10:20:52;99562.44;;;3.39;75.22
56241;BME280;42155;53.096;23.226;2023-12-28T10:22:53;99571.06;;;3.41;74.91
56241;BME280;42155;53.096;23.226;2023-12-28T10:24:53;99541.41;;;3.25;74.52
56241;BME280;42155;53.096;23.226;2023-12-28T10:26:56;99561.41;;;3.42;75.13
56241;BME280;42155;53.096;23.226;2023-12-28T10:29:00;99552.44;;;3.46;74.92
56241;BME280;42155;53.096;23.226;2023-12-28T10:31:00;99539.25;;;3.47;74.82
56241;BME280;42155;53.096;23.226;2023-12-28T10:33:04;99511.66;;;3.40;74.44
56241;BME280;42155;53.096;23.226;2023-12-28T10:35:05;99508.47;;;3.35;75.12
56241;BME280;42155;53.096;23.226;2023-12-28T10:37:06;99536.78;;;3.44;74.37
56241;BME280;42155;53.096;23.226;2023-12-28T10:39:09;99522.47;;;3.50;75.09
56241;BME280;42155;53.096;23.226;2023-12-28T10:41:10;99505.41;;;3.43;74.82